createdAt,value
2023-05-26T00:04:20.299Z,96199.00
2023-05-26T00:09:48.863Z,96191.00
2023-05-26T00:15:17.037Z,96194.00
2023-05-26T00:20:45.776Z,96203.00
2023-05-26T00:26:14.365Z,96195.00
2023-05-26T00:31:45.061Z,96210.00
2023-05-26T00:37:13.228Z,96212.00
2023-05-26T00:42:41.389Z,96206.00
2023-05-26T00:48:09.576Z,96197.00
2023-05-26T00:53:42.733Z,96197.00
2023-05-26T00:59:13.399Z,96192.00
2023-05-26T01:04:43.253Z,96196.00
2023-05-26T01:10:11.760Z,96196.00
2023-05-26T01:15:49.150Z,96187.00
2023-05-26T01:21:18.975Z,96185.00
2023-05-26T01:27:33.114Z,96179.00
2023-05-26T01:33:01.400Z,96177.00
2023-05-26T01:38:29.962Z,96190.00
2023-05-26T01:44:27.124Z,96186.00
2023-05-26T01:49:56.615Z,96185.00
2023-05-26T01:55:27.599Z,96189.00
2023-05-26T02:00:59.758Z,96189.00
2023-05-26T02:06:28.361Z,96189.00
2023-05-26T02:11:56.531Z,96185.00
2023-05-26T02:17:25.227Z,96179.00
2023-05-26T02:22:53.549Z,96178.00
2023-05-26T02:28:21.741Z,96177.00
2023-05-26T02:33:50.532Z,96188.00
2023-05-26T02:39:18.798Z,96180.00
2023-05-26T02:44:50.930Z,96185.00
2023-05-26T02:50:23.510Z,96182.00
2023-05-26T02:55:52.536Z,96190.00
2023-05-26T03:01:26.312Z,96195.00
2023-05-26T03:06:59.060Z,96191.00
2023-05-26T03:12:32.640Z,96198.00
2023-05-26T03:18:01.460Z,96194.00
2023-05-26T03:23:30.966Z,96197.00
2023-05-26T03:29:01.013Z,96197.00
2023-05-26T03:34:29.198Z,96188.00
2023-05-26T03:39:59.274Z,96188.00
2023-05-26T03:45:29.805Z,96195.00
2023-05-26T03:51:00.180Z,96204.00
2023-05-26T03:56:28.453Z,96201.00
2023-05-26T04:01:56.673Z,96200.00
2023-05-26T04:07:24.956Z,96205.00
2023-05-26T04:12:53.144Z,96218.00
2023-05-26T04:18:22.827Z,96220.00
2023-05-26T04:23:52.693Z,96220.00
2023-05-26T04:29:22.479Z,96222.00
2023-05-26T04:35:20.780Z,96213.00
2023-05-26T04:40:51.365Z,96219.00
2023-05-26T04:46:19.591Z,96221.00
2023-05-26T04:51:48.294Z,96220.00
2023-05-26T04:57:16.505Z,96227.00
2023-05-26T05:02:51.243Z,96233.00
2023-05-26T05:08:46.423Z,96230.00
2023-05-26T05:14:14.636Z,96240.00
2023-05-26T05:19:50.765Z,96242.00
2023-05-26T05:25:22.902Z,96250.00
2023-05-26T05:30:51.415Z,96248.00
2023-05-26T05:36:19.889Z,96248.00
2023-05-26T05:41:48.226Z,96240.00
2023-05-26T05:47:16.770Z,96248.00
2023-05-26T05:53:05.156Z,96251.00
2023-05-26T05:58:33.548Z,96250.00
2023-05-26T06:10:01.663Z,96253.00
2023-05-26T06:15:30.382Z,96251.00
2023-05-26T06:20:59.087Z,96248.00
2023-05-26T06:26:30.496Z,96256.00
2023-05-26T06:31:58.940Z,96274.00
2023-05-26T06:37:30.817Z,96276.00
2023-05-26T06:42:59.681Z,96277.00
2023-05-26T06:48:29.383Z,96280.00
2023-05-26T06:54:15.060Z,96275.00
2023-05-26T06:59:43.962Z,96271.00
2023-05-26T07:05:12.109Z,96273.00
2023-05-26T07:10:40.321Z,96277.00
2023-05-26T07:16:14.057Z,96282.00
2023-05-26T07:21:42.348Z,96273.00
2023-05-26T07:27:13.868Z,96279.00
2023-05-26T07:32:41.912Z,96274.00
2023-05-26T07:38:10.556Z,96276.00
2023-05-26T07:43:38.453Z,96272.00
2023-05-26T07:49:07.480Z,96270.00
2023-05-26T07:54:36.411Z,96272.00
2023-05-26T08:00:06.257Z,96282.00
2023-05-26T08:05:41.247Z,96273.00
2023-05-26T08:11:09.196Z,96275.00
2023-05-26T08:16:39.834Z,96276.00
2023-05-26T08:22:10.415Z,96273.00
2023-05-26T08:27:38.582Z,96276.00
2023-05-26T08:33:06.814Z,96270.00
2023-05-26T08:38:34.624Z,96269.00
2023-05-26T08:44:07.744Z,96264.00
2023-05-26T08:49:47.029Z,96266.00
2023-05-26T08:55:14.986Z,96269.00
2023-05-26T09:00:46.887Z,96270.00
2023-05-26T09:06:19.850Z,96265.00
2023-05-26T09:12:15.300Z,96269.00
2023-05-26T09:17:58.971Z,96269.00
2023-05-26T09:23:30.551Z,96265.00
2023-05-26T09:29:08.105Z,96266.00
2023-05-26T09:34:38.984Z,96264.00
2023-05-26T09:40:19.231Z,96261.00
2023-05-26T09:45:47.411Z,96272.00
2023-05-26T09:51:30.928Z,96268.00
2023-05-26T09:57:05.739Z,96264.00
2023-05-26T10:02:35.584Z,96269.00
2023-05-26T10:08:05.274Z,96268.00
2023-05-26T10:13:34.600Z,96269.00
2023-05-26T10:19:02.890Z,96258.00
2023-05-26T10:24:39.865Z,96257.00
2023-05-26T10:30:10.274Z,96269.00
2023-05-26T10:35:39.083Z,96259.00
2023-05-26T10:41:15.425Z,96257.00
2023-05-26T10:46:47.537Z,96254.00
2023-05-26T10:52:15.809Z,96253.00
2023-05-26T10:57:43.726Z,96244.00
2023-05-26T11:03:37.961Z,96257.00
2023-05-26T11:09:10.292Z,96240.00
2023-05-26T11:14:38.350Z,96251.00
2023-05-26T11:20:07.710Z,96248.00
2023-05-26T11:25:49.257Z,96243.00
2023-05-26T11:31:23.922Z,96247.00
2023-05-26T11:36:59.668Z,96252.00
2023-05-26T11:42:28.114Z,96253.00
2023-05-26T11:47:55.862Z,96245.00
2023-05-26T11:53:23.898Z,96235.00
2023-05-26T11:58:57.972Z,96252.00
2023-05-26T12:04:31.828Z,96245.00
2023-05-26T12:10:09.762Z,96245.00
2023-05-26T12:15:38.096Z,96242.00
2023-05-26T12:21:11.850Z,96248.00
2023-05-26T12:26:41.337Z,96244.00
2023-05-26T12:32:14.346Z,96245.00
2023-05-26T12:37:45.799Z,96245.00
2023-05-26T12:43:14.438Z,96251.00
2023-05-26T12:48:43.125Z,96243.00
2023-05-26T12:54:12.429Z,96236.00
2023-05-26T12:59:47.488Z,96241.00
2023-05-26T13:05:18.069Z,96240.00
2023-05-26T13:10:50.309Z,96252.00
2023-05-26T13:16:25.788Z,96245.00
2023-05-26T13:21:54.304Z,96239.00
2023-05-26T13:27:24.596Z,96236.00
2023-05-26T13:32:52.737Z,96243.00
2023-05-26T13:38:21.079Z,96236.00
2023-05-26T13:43:49.294Z,96242.00
2023-05-26T13:49:17.365Z,96228.00
2023-05-26T13:54:45.703Z,96234.00
2023-05-26T14:00:14.290Z,96231.00
2023-05-26T14:05:45.562Z,96223.00
2023-05-26T14:11:14.349Z,96221.00
2023-05-26T14:16:43.428Z,96220.00
2023-05-26T14:22:17.583Z,96230.00
2023-05-26T14:27:49.869Z,96238.00
2023-05-26T14:33:17.957Z,96220.00
2023-05-26T14:38:47.261Z,96232.00
2023-05-26T14:44:16.093Z,96234.00
2023-05-26T14:49:43.925Z,96232.00
2023-05-26T14:55:11.905Z,96236.00
2023-05-26T15:00:40.927Z,96236.00
2023-05-26T15:06:16.337Z,96234.00
2023-05-26T15:11:47.858Z,96227.00
2023-05-26T15:17:16.545Z,96233.00
2023-05-26T15:23:31.871Z,96239.00
2023-05-26T15:35:01.654Z,96236.00
2023-05-26T15:40:35.748Z,96240.00
2023-05-26T15:46:03.855Z,96237.00
2023-05-26T15:51:33.455Z,96244.00
2023-05-26T15:57:07.727Z,96235.00
2023-05-26T16:02:39.533Z,96239.00
2023-05-26T16:08:07.781Z,96229.00
2023-05-26T16:13:36.095Z,96217.00
2023-05-26T16:19:04.976Z,96221.00
2023-05-26T16:24:36.492Z,96217.00
2023-05-26T16:30:11.300Z,96219.00
2023-05-26T16:35:51.806Z,96215.00
2023-05-26T16:41:20.230Z,96218.00
2023-05-26T16:46:48.208Z,96212.00
2023-05-26T16:52:16.403Z,96220.00
2023-05-26T16:57:44.381Z,96216.00
2023-05-26T17:03:13.165Z,96220.00
2023-05-26T17:08:42.785Z,96215.00
2023-05-26T17:14:12.295Z,96203.00
2023-05-26T17:19:40.793Z,96220.00
2023-05-26T17:25:10.668Z,96219.00
2023-05-26T17:30:38.521Z,96219.00
2023-05-26T17:36:06.738Z,96219.00
2023-05-26T17:41:35.235Z,96223.00
2023-05-26T17:47:04.193Z,96231.00
2023-05-26T17:52:32.663Z,96231.00
2023-05-26T17:58:00.854Z,96235.00
2023-05-26T18:03:29.027Z,96242.00
2023-05-26T18:08:57.318Z,96248.00
2023-05-26T18:14:25.526Z,96252.00
2023-05-26T18:20:03.956Z,96248.00
2023-05-26T18:25:33.518Z,96250.00
2023-05-26T18:31:02.140Z,96252.00
2023-05-26T18:37:11.864Z,96250.00
2023-05-26T18:43:07.181Z,96260.00
2023-05-26T18:48:36.196Z,96258.00
2023-05-26T18:54:04.671Z,96258.00
2023-05-26T18:59:33.266Z,96265.00
2023-05-26T19:05:01.710Z,96263.00
2023-05-26T19:10:30.824Z,96271.00
2023-05-26T19:16:01.513Z,96267.00
2023-05-26T19:21:30.736Z,96273.00
2023-05-26T19:26:58.919Z,96273.00
2023-05-26T19:32:27.192Z,96283.00
2023-05-26T19:37:55.378Z,96282.00
2023-05-26T19:43:23.512Z,96280.00
2023-05-26T19:48:52.056Z,96286.00
2023-05-26T19:54:21.296Z,96284.00
2023-05-26T19:59:50.407Z,96280.00
2023-05-26T20:05:20.237Z,96294.00
2023-05-26T20:10:48.348Z,96296.00
2023-05-26T20:16:17.666Z,96287.00
2023-05-26T20:21:46.569Z,96298.00
2023-05-26T20:27:14.681Z,96301.00
2023-05-26T20:32:42.822Z,96293.00
2023-05-26T20:38:11.202Z,96308.00
2023-05-26T20:43:39.872Z,96307.00
2023-05-26T20:49:08.089Z,96312.00
2023-05-26T20:54:36.719Z,96303.00
2023-05-26T21:00:06.196Z,96312.00
2023-05-26T21:05:34.516Z,96311.00
2023-05-26T21:11:04.433Z,96310.00
2023-05-26T21:16:32.774Z,96315.00
2023-05-26T21:22:03.272Z,96318.00
2023-05-26T21:27:31.918Z,96304.00
2023-05-26T21:33:05.863Z,96303.00
2023-05-26T21:38:34.492Z,96314.00
2023-05-26T21:44:02.941Z,96313.00
2023-05-26T21:49:34.387Z,96314.00
2023-05-26T21:55:04.220Z,96312.00
2023-05-26T22:00:32.611Z,96312.00
2023-05-26T22:06:01.694Z,96311.00
2023-05-26T22:11:30.116Z,96314.00
2023-05-26T22:16:59.326Z,96319.00
2023-05-26T22:22:27.472Z,96319.00
2023-05-26T22:27:56.117Z,96322.00
2023-05-26T22:33:24.706Z,96326.00
2023-05-26T22:38:52.796Z,96323.00
2023-05-26T22:44:21.575Z,96321.00
2023-05-26T22:49:50.736Z,96324.00
2023-05-26T22:55:23.668Z,96316.00
2023-05-26T23:00:57.427Z,96324.00
2023-05-26T23:06:25.851Z,96314.00
2023-05-26T23:11:53.921Z,96326.00
2023-05-26T23:17:22.130Z,96316.00
2023-05-26T23:22:50.463Z,96323.00
2023-05-26T23:28:18.681Z,96329.00
2023-05-26T23:33:46.844Z,96324.00
2023-05-26T23:39:15.116Z,96326.00
2023-05-26T23:44:43.438Z,96324.00
2023-05-26T23:50:25.283Z,96320.00
2023-05-26T23:55:53.826Z,96318.00
